Time;durP1;ratioP1;P1;durP2;ratioP2;P2;SDS_P1;SDS_P2;PMS_P1;PMS_P2;Temp;Humidity;BMP_temperature;BMP_pressure;BME280_temperature;BME280_humidity;BME280_pressure;Samples;Min_cycle;Max_cycle;Signal;HPM_P1;HPM_P2
2022/01/15 00:01:30;;;;;;;24.23;10.52;;;7.30;99.90;;;;;;5092617;28;20048;-68
2022/01/15 00:03:55;;;;;;;15.02;9.07;;;7.20;99.90;;;;;;5093944;28;20370;-68
2022/01/15 00:06:21;;;;;;;15.65;9.43;;;7.20;99.90;;;;;;5095161;28;20040;-68
2022/01/15 00:08:47;;;;;;;17.30;9.48;;;7.20;99.90;;;;;;5096599;28;20039;-68
2022/01/15 00:11:12;;;;;;;19.83;10.60;;;7.20;99.90;;;;;;5096729;28;20040;-68
2022/01/15 00:13:41;;;;;;;14.88;8.68;;;7.20;99.90;;;;;;5096848;28;20046;-68
2022/01/15 00:16:10;;;;;;;14.30;8.15;;;7.20;99.90;;;;;;5095096;28;20048;-67
2022/01/15 00:18:48;;;;;;;13.27;8.77;;;7.10;99.90;;;;;;5094810;28;20044;-68
2022/01/15 00:21:15;;;;;;;15.00;9.55;;;7.20;99.90;;;;;;5095609;28;20052;-68
2022/01/15 00:23:43;;;;;;;15.98;9.15;;;7.20;99.90;;;;;;5096491;28;20036;-68
2022/01/15 00:26:09;;;;;;;17.15;9.45;;;7.10;99.90;;;;;;5095791;28;20039;-68
2022/01/15 00:28:34;;;;;;;18.30;10.25;;;7.20;99.90;;;;;;5095771;28;20484;-68
2022/01/15 00:31:00;;;;;;;17.25;9.68;;;7.10;99.90;;;;;;5096048;28;20082;-68
2022/01/15 00:33:29;;;;;;;13.27;8.30;;;7.10;99.90;;;;;;5096535;28;20040;-68
2022/01/15 00:35:55;;;;;;;16.90;9.80;;;7.10;99.90;;;;;;5095608;28;20040;-68
2022/01/15 00:38:21;;;;;;;15.93;9.07;;;7.20;99.90;;;;;;5095694;28;20126;-68
2022/01/15 00:40:47;;;;;;;15.15;8.18;;;7.20;99.90;;;;;;5096100;28;20123;-68
2022/01/15 00:43:12;;;;;;;15.00;8.07;;;7.20;99.90;;;;;;5095869;28;20118;-68
2022/01/15 00:45:38;;;;;;;14.32;8.38;;;7.20;99.90;;;;;;5095446;28;20036;-67
2022/01/15 00:48:04;;;;;;;13.75;8.18;;;7.20;99.90;;;;;;5095730;28;20032;-67
2022/01/15 00:50:29;;;;;;;13.43;9.07;;;7.20;99.90;;;;;;5095838;28;20121;-68
2022/01/15 00:52:55;;;;;;;11.32;8.02;;;7.20;99.90;;;;;;5095558;28;20051;-68
2022/01/15 00:55:21;;;;;;;14.48;9.45;;;7.30;99.90;;;;;;5094680;28;20044;-68
2022/01/15 00:57:47;;;;;;;15.77;9.18;;;7.20;99.90;;;;;;5094442;28;20040;-67
2022/01/15 01:00:20;;;;;;;17.67;10.48;;;7.20;99.90;;;;;;5095431;28;20044;-68
2022/01/15 01:02:46;;;;;;;15.55;9.82;;;7.20;99.90;;;;;;5094333;28;20054;-68
2022/01/15 01:05:12;;;;;;;13.38;8.70;;;7.20;99.90;;;;;;5095662;28;20086;-68
2022/01/15 01:07:38;;;;;;;15.13;8.40;;;7.20;99.90;;;;;;5094918;28;20028;-68
2022/01/15 01:23:26;;;;;;;13.65;7.60;;;7.10;99.90;;;;;;5093680;28;20051;-68
2022/01/15 01:25:58;;;;;;;13.57;8.20;;;7.10;99.90;;;;;;5094882;28;20035;-68
2022/01/15 01:28:38;;;;;;;13.60;8.23;;;7.20;99.90;;;;;;5094803;28;20044;-68
2022/01/15 01:31:13;;;;;;;13.95;8.50;;;7.10;99.90;;;;;;5094871;28;20040;-68
2022/01/15 01:33:43;;;;;;;9.55;5.85;;;7.10;99.90;;;;;;5095164;28;20101;-67
2022/01/15 01:38:41;;;;;;;10.95;6.07;;;7.10;99.90;;;;;;5095276;28;20044;-68
2022/01/15 01:41:14;;;;;;;11.77;5.73;;;7.10;99.90;;;;;;5094775;28;20120;-68
2022/01/15 01:43:45;;;;;;;7.43;4.90;;;7.10;99.90;;;;;;5093431;28;20048;-67
2022/01/15 01:48:43;;;;;;;7.20;4.32;;;7.20;99.90;;;;;;5094957;28;20042;-68
2022/01/15 01:51:25;;;;;;;10.52;5.22;;;7.20;99.90;;;;;;5094879;28;20119;-68
2022/01/15 01:53:51;;;;;;;7.00;4.05;;;7.10;99.90;;;;;;5094450;28;20495;-68
2022/01/15 01:56:18;;;;;;;8.45;5.15;;;7.10;99.90;;;;;;5094034;28;20093;-68
2022/01/15 01:58:45;;;;;;;6.65;3.88;;;7.10;99.90;;;;;;5094200;28;20043;-68
2022/01/15 02:01:10;;;;;;;5.80;3.53;;;7.10;99.90;;;;;;5094333;28;20039;-68
2022/01/15 02:03:36;;;;;;;6.60;3.42;;;7.10;99.90;;;;;;5094148;28;20036;-68
2022/01/15 02:06:02;;;;;;;5.90;3.20;;;7.10;99.90;;;;;;5094147;28;20480;-68
2022/01/15 02:08:29;;;;;;;4.80;2.90;;;7.10;99.90;;;;;;5093861;28;20556;-68
2022/01/15 02:10:57;;;;;;;5.63;2.72;;;7.10;99.90;;;;;;5094967;28;20046;-68
2022/01/15 02:13:22;;;;;;;4.00;2.40;;;7.00;99.90;;;;;;5094163;28;20044;-68
2022/01/15 02:15:48;;;;;;;5.32;2.97;;;7.00;99.90;;;;;;5092606;28;20039;-68
2022/01/15 02:18:14;;;;;;;4.68;2.63;;;6.90;99.90;;;;;;5093777;28;20388;-68
2022/01/15 02:21:02;;;;;;;5.90;2.75;;;6.90;99.90;;;;;;5093782;28;20121;-67
2022/01/15 02:23:34;;;;;;;5.68;2.92;;;6.90;99.90;;;;;;5093007;28;20497;-67
2022/01/15 02:26:06;;;;;;;4.00;2.80;;;6.90;99.90;;;;;;5092514;28;20404;-68
2022/01/15 02:28:39;;;;;;;6.18;3.55;;;7.00;99.90;;;;;;5094096;28;20032;-67
2022/01/15 02:31:10;;;;;;;5.15;2.90;;;6.90;99.90;;;;;;5092535;28;20074;-68
2022/01/15 02:33:37;;;;;;;4.18;2.50;;;6.90;99.90;;;;;;5093819;28;20063;-68
2022/01/15 02:36:04;;;;;;;4.20;2.60;;;6.90;99.90;;;;;;5093548;28;20035;-68
2022/01/15 02:38:30;;;;;;;5.97;2.63;;;6.90;99.90;;;;;;5093622;28;20036;-68
2022/01/15 02:40:55;;;;;;;4.95;2.50;;;6.90;99.90;;;;;;5093580;28;20036;-68
2022/01/15 02:43:28;;;;;;;3.88;2.45;;;6.80;99.90;;;;;;5093622;28;20441;-68
2022/01/15 02:45:56;;;;;;;3.38;2.20;;;6.90;99.90;;;;;;5093823;28;20044;-68
2022/01/15 02:48:27;;;;;;;3.88;2.47;;;6.90;99.90;;;;;;5093588;28;20040;-68
2022/01/15 02:50:55;;;;;;;3.50;2.30;;;6.90;99.90;;;;;;5093726;28;20043;-68
2022/01/15 02:53:21;;;;;;;4.65;2.70;;;6.90;99.90;;;;;;5092474;28;20047;-68
2022/01/15 02:55:50;;;;;;;3.85;2.30;;;6.90;99.90;;;;;;5093237;28;20043;-68
2022/01/15 02:58:17;;;;;;;3.75;2.15;;;6.90;99.90;;;;;;5093252;28;20488;-68
2022/01/15 03:00:43;;;;;;;3.38;1.90;;;6.90;99.90;;;;;;5093222;28;20040;-68
2022/01/15 03:03:08;;;;;;;2.65;1.80;;;6.90;99.90;;;;;;5093681;28;20087;-68
2022/01/15 03:05:34;;;;;;;3.17;2.22;;;7.00;99.90;;;;;;5092205;28;20058;-68
2022/01/15 03:08:00;;;;;;;3.10;1.92;;;7.00;99.90;;;;;;5093302;28;20403;-68
2022/01/15 03:10:26;;;;;;;3.17;2.03;;;7.00;99.90;;;;;;5094043;28;20040;-68
2022/01/15 03:12:54;;;;;;;3.75;2.67;;;7.00;99.90;;;;;;5092878;28;20055;-68
2022/01/15 03:15:20;;;;;;;4.15;2.60;;;7.00;99.90;;;;;;5093177;28;20078;-68
2022/01/15 03:17:47;;;;;;;4.93;2.83;;;7.00;99.90;;;;;;5093240;28;20061;-68
2022/01/15 03:20:14;;;;;;;3.85;2.00;;;7.00;99.90;;;;;;5093204;28;20426;-68
2022/01/15 03:22:40;;;;;;;6.38;2.40;;;7.00;99.90;;;;;;5093251;28;20047;-68
2022/01/15 03:25:07;;;;;;;6.43;2.95;;;7.00;99.90;;;;;;5092376;28;20032;-68
2022/01/15 03:27:32;;;;;;;4.53;2.80;;;7.00;99.90;;;;;;5093206;28;20075;-68
2022/01/15 03:29:58;;;;;;;5.85;3.20;;;7.00;99.90;;;;;;5092571;28;20036;-68
2022/01/15 03:32:23;;;;;;;3.72;2.40;;;7.00;99.90;;;;;;5092136;28;20043;-68
2022/01/15 03:34:49;;;;;;;5.25;3.05;;;6.90;99.90;;;;;;5093347;28;20036;-68
2022/01/15 03:37:16;;;;;;;5.13;3.05;;;7.00;99.90;;;;;;5092763;28;20495;-68
2022/01/15 03:39:42;;;;;;;4.43;2.85;;;6.90;99.90;;;;;;5095175;28;20040;-68
2022/01/15 03:42:11;;;;;;;4.05;2.45;;;7.00;99.90;;;;;;5097234;28;20032;-68
2022/01/15 03:44:46;;;;;;;3.58;2.35;;;6.90;99.90;;;;;;5095700;28;20381;-68
2022/01/15 03:47:12;;;;;;;4.90;3.17;;;7.00;99.90;;;;;;5095139;28;20036;-68
2022/01/15 03:49:39;;;;;;;5.82;3.75;;;7.00;99.90;;;;;;5097324;28;20036;-67
2022/01/15 03:52:07;;;;;;;7.15;4.63;;;7.00;99.90;;;;;;5095828;28;20048;-68
2022/01/15 03:54:33;;;;;;;8.00;5.43;;;7.00;99.90;;;;;;5096552;28;20470;-68
2022/01/15 03:56:59;;;;;;;9.38;5.18;;;7.00;99.90;;;;;;5096286;28;20040;-68
2022/01/15 03:59:24;;;;;;;6.35;4.07;;;6.90;99.90;;;;;;5096865;28;20039;-68
2022/01/15 04:01:50;;;;;;;4.50;2.78;;;6.90;99.90;;;;;;5095524;28;20098;-68
2022/01/15 04:04:16;;;;;;;4.75;3.03;;;6.90;99.90;;;;;;5096479;28;20089;-68
2022/01/15 04:06:42;;;;;;;5.65;3.10;;;6.80;99.90;;;;;;5096140;28;20119;-68
2022/01/15 04:09:09;;;;;;;8.13;3.22;;;6.80;99.90;;;;;;5095608;28;20124;-68
2022/01/15 04:11:34;;;;;;;5.90;3.97;;;6.90;99.90;;;;;;5096935;28;20044;-67
2022/01/15 04:14:01;;;;;;;7.32;4.20;;;6.90;99.90;;;;;;5095219;28;20081;-68
2022/01/15 04:16:28;;;;;;;7.25;3.97;;;6.90;99.90;;;;;;5096111;28;20123;-68
2022/01/15 04:18:58;;;;;;;8.07;4.43;;;6.80;99.90;;;;;;5096322;28;20161;-68
2022/01/15 04:21:24;;;;;;;9.80;5.07;;;6.90;99.90;;;;;;5096040;28;20089;-68
2022/01/15 04:23:50;;;;;;;6.57;3.65;;;6.80;99.90;;;;;;5096657;28;20036;-68
2022/01/15 04:26:18;;;;;;;6.75;4.15;;;6.80;99.90;;;;;;5094683;28;20046;-68
2022/01/15 04:28:43;;;;;;;6.28;3.88;;;6.80;99.90;;;;;;5096127;28;20410;-68
2022/01/15 04:31:09;;;;;;;6.30;3.17;;;6.80;99.90;;;;;;5096008;28;20040;-68
2022/01/15 04:33:37;;;;;;;10.75;4.63;;;6.80;99.90;;;;;;5095905;28;20488;-68
2022/01/15 04:36:04;;;;;;;8.20;3.92;;;6.80;99.90;;;;;;5094873;28;20042;-67
2022/01/15 04:38:32;;;;;;;9.38;5.00;;;6.80;99.90;;;;;;5095757;28;20051;-68
2022/01/15 04:40:58;;;;;;;7.80;4.28;;;6.80;99.90;;;;;;5095054;28;20075;-68
2022/01/15 04:43:24;;;;;;;9.90;4.53;;;6.80;99.90;;;;;;5095814;28;20032;-68
2022/01/15 04:45:50;;;;;;;9.18;4.63;;;6.80;99.90;;;;;;5095770;28;20040;-68
2022/01/15 04:48:15;;;;;;;9.05;4.70;;;6.70;99.90;;;;;;5094257;28;20093;-68
2022/01/15 04:50:41;;;;;;;9.25;4.82;;;6.70;99.90;;;;;;5095109;28;20044;-68
2022/01/15 04:53:08;;;;;;;12.55;5.68;;;6.70;99.90;;;;;;5095418;28;20396;-68
2022/01/15 04:55:35;;;;;;;9.18;4.85;;;6.70;99.90;;;;;;5095754;28;20115;-68
2022/01/15 04:58:00;;;;;;;16.98;5.95;;;6.60;99.90;;;;;;5094080;28;20052;-68
2022/01/15 05:00:26;;;;;;;12.82;5.22;;;6.50;99.90;;;;;;5095230;28;20097;-68
2022/01/15 05:02:51;;;;;;;9.65;5.57;;;6.60;99.90;;;;;;5095689;28;20075;-67
2022/01/15 05:05:17;;;;;;;7.75;4.43;;;6.60;99.90;;;;;;5095467;28;20043;-68
2022/01/15 05:07:43;;;;;;;9.35;5.20;;;6.60;99.90;;;;;;5095099;28;20480;-68
2022/01/15 05:10:11;;;;;;;7.50;4.75;;;6.60;99.90;;;;;;5096097;28;20039;-68
2022/01/15 05:12:42;;;;;;;9.07;4.70;;;6.70;99.90;;;;;;5094074;28;20063;-68
2022/01/15 05:15:09;;;;;;;8.77;4.97;;;6.60;99.90;;;;;;5095472;28;20036;-68
2022/01/15 05:17:35;;;;;;;9.15;5.45;;;6.70;99.90;;;;;;5094975;28;20040;-68
2022/01/15 05:20:01;;;;;;;12.25;6.00;;;6.80;99.90;;;;;;5095143;28;20040;-68
2022/01/15 05:22:26;;;;;;;11.90;6.28;;;6.80;99.90;;;;;;5095571;28;20028;-68
2022/01/15 05:24:52;;;;;;;9.68;5.65;;;6.70;99.90;;;;;;5095190;28;20047;-68
2022/01/15 05:27:17;;;;;;;9.80;5.55;;;6.70;99.90;;;;;;5094786;28;20120;-67
2022/01/15 05:29:44;;;;;;;13.82;6.80;;;6.80;99.90;;;;;;5093935;28;20040;-68
2022/01/15 05:32:09;;;;;;;11.98;6.20;;;6.80;99.90;;;;;;5095257;28;20050;-67
2022/01/15 05:34:35;;;;;;;13.63;6.18;;;6.70;99.90;;;;;;5094736;28;20114;-68
2022/01/15 05:37:01;;;;;;;15.73;6.70;;;6.80;99.90;;;;;;5093123;28;20036;-68
2022/01/15 05:39:27;;;;;;;11.68;5.53;;;6.70;99.90;;;;;;5093278;28;20050;-68
2022/01/15 05:41:53;;;;;;;13.80;6.68;;;6.80;99.90;;;;;;5093429;28;20044;-68
2022/01/15 05:44:19;;;;;;;16.33;6.97;;;6.80;99.90;;;;;;5094645;28;20036;-68
2022/01/15 05:46:45;;;;;;;14.10;6.43;;;6.80;99.90;;;;;;5092926;28;20169;-68
2022/01/15 05:49:11;;;;;;;15.00;6.38;;;6.80;99.90;;;;;;5093711;28;20071;-68
2022/01/15 05:51:37;;;;;;;11.98;6.30;;;6.80;99.90;;;;;;5095037;28;20036;-68
2022/01/15 05:54:10;;;;;;;12.25;6.68;;;6.80;99.90;;;;;;5094615;28;20507;-68
2022/01/15 05:56:36;;;;;;;17.98;7.78;;;6.80;99.90;;;;;;5094113;28;20040;-68
2022/01/15 05:59:02;;;;;;;19.17;7.25;;;6.70;99.90;;;;;;5094811;28;20047;-68
2022/01/15 06:01:28;;;;;;;18.55;7.20;;;6.80;99.90;;;;;;5093945;28;20044;-68
2022/01/15 06:03:54;;;;;;;15.48;7.53;;;6.70;99.90;;;;;;5094200;28;20032;-68
2022/01/15 06:06:20;;;;;;;18.08;6.60;;;6.80;99.90;;;;;;5094276;28;20572;-68
2022/01/15 06:08:46;;;;;;;21.13;8.38;;;6.80;99.90;;;;;;5093179;28;20035;-68
2022/01/15 06:11:17;;;;;;;20.00;6.93;;;6.70;99.90;;;;;;5092683;28;20462;-68
2022/01/15 06:13:43;;;;;;;20.15;8.55;;;6.80;99.90;;;;;;5092908;28;20051;-68
2022/01/15 06:16:09;;;;;;;19.25;8.00;;;6.70;99.90;;;;;;5092665;28;20488;-68
2022/01/15 06:18:34;;;;;;;18.70;7.75;;;6.70;99.90;;;;;;5094368;28;20040;-68
2022/01/15 06:21:00;;;;;;;16.92;7.05;;;6.70;99.90;;;;;;5092719;28;20051;-68
2022/01/15 06:23:26;;;;;;;16.75;6.53;;;6.70;99.90;;;;;;5094267;28;20024;-68
2022/01/15 06:25:51;;;;;;;22.25;8.05;;;6.80;99.90;;;;;;5092350;28;20617;-68
2022/01/15 06:28:17;;;;;;;14.45;6.18;;;6.70;99.90;;;;;;5093709;28;20068;-68
2022/01/15 06:30:42;;;;;;;19.45;7.55;;;6.70;99.90;;;;;;5094504;28;20468;-68
2022/01/15 06:33:08;;;;;;;19.55;7.53;;;6.70;99.90;;;;;;5092591;28;20044;-68
2022/01/15 06:35:33;;;;;;;13.40;5.88;;;6.70;99.90;;;;;;5093572;28;20039;-67
2022/01/15 06:37:59;;;;;;;14.80;6.80;;;6.80;99.90;;;;;;5094091;28;20162;-68
2022/01/15 06:40:24;;;;;;;16.85;7.15;;;6.80;99.90;;;;;;5093733;28;20126;-68
2022/01/15 06:42:50;;;;;;;12.20;6.95;;;6.70;99.90;;;;;;5093612;28;20036;-68
2022/01/15 06:45:16;;;;;;;16.25;6.07;;;6.70;99.90;;;;;;5093542;28;20036;-68
2022/01/15 06:47:41;;;;;;;11.55;5.75;;;6.70;99.90;;;;;;5093099;28;20032;-68
2022/01/15 06:50:08;;;;;;;10.75;4.55;;;6.70;99.90;;;;;;5094156;28;20067;-68
2022/01/15 06:52:35;;;;;;;7.60;4.40;;;6.70;99.90;;;;;;5092211;28;20047;-68
2022/01/15 06:55:02;;;;;;;6.88;3.92;;;6.70;99.90;;;;;;5093538;28;20047;-68
2022/01/15 06:57:28;;;;;;;7.45;3.65;;;6.70;99.90;;;;;;5093234;28;20036;-68
2022/01/15 06:59:54;;;;;;;7.30;3.50;;;6.70;99.90;;;;;;5092709;28;20082;-68
2022/01/15 07:02:19;;;;;;;4.30;3.15;;;6.70;99.90;;;;;;5091973;28;20471;-68
2022/01/15 07:04:45;;;;;;;6.00;3.50;;;6.70;99.90;;;;;;5074230;28;20072;-68
2022/01/15 07:07:11;;;;;;;5.00;3.10;;;6.70;99.90;;;;;;5073039;28;20040;-68
2022/01/15 07:09:36;;;;;;;5.78;3.58;;;6.70;99.90;;;;;;5073370;28;20036;-68
2022/01/15 07:12:03;;;;;;;7.65;3.15;;;6.70;99.90;;;;;;5072529;28;20067;-68
2022/01/15 07:14:29;;;;;;;5.07;3.13;;;6.70;99.90;;;;;;5077113;28;20039;-68
2022/01/15 07:16:55;;;;;;;5.97;3.10;;;6.60;99.90;;;;;;5075649;28;20036;-68
2022/01/15 07:19:21;;;;;;;5.35;3.03;;;6.60;99.90;;;;;;5075881;28;20043;-68
2022/01/15 07:21:47;;;;;;;6.53;3.00;;;6.70;99.90;;;;;;5077083;28;20043;-68
2022/01/15 07:24:13;;;;;;;5.85;2.83;;;6.60;99.90;;;;;;5077277;28;20041;-68
2022/01/15 07:26:39;;;;;;;5.50;3.35;;;6.70;99.90;;;;;;5076699;28;20032;-68
2022/01/15 07:29:12;;;;;;;5.68;3.83;;;6.70;99.90;;;;;;5077675;28;20044;-67
2022/01/15 07:31:38;;;;;;;6.18;3.88;;;6.70;99.90;;;;;;5059124;28;20116;-68
2022/01/15 07:34:03;;;;;;;6.32;3.85;;;6.70;99.90;;;;;;5076908;28;20599;-68
2022/01/15 07:36:29;;;;;;;6.25;3.70;;;6.60;99.90;;;;;;5076542;28;20052;-68
2022/01/15 07:38:54;;;;;;;4.90;3.47;;;6.60;99.90;;;;;;5076715;28;20050;-68
2022/01/15 07:41:22;;;;;;;5.25;3.00;;;6.60;99.90;;;;;;5076591;28;20123;-68
2022/01/15 07:43:47;;;;;;;5.28;2.85;;;6.60;99.90;;;;;;5075475;28;20028;-68
2022/01/15 07:46:13;;;;;;;5.40;2.63;;;6.60;99.90;;;;;;5076657;28;20373;-68
2022/01/15 07:48:39;;;;;;;5.20;3.08;;;6.60;99.90;;;;;;5076712;28;20036;-68
2022/01/15 07:51:04;;;;;;;6.20;2.78;;;6.60;99.90;;;;;;5076822;28;20063;-68
2022/01/15 07:53:30;;;;;;;4.53;2.55;;;6.60;99.90;;;;;;5076529;28;20090;-68
2022/01/15 07:55:56;;;;;;;5.97;3.05;;;6.60;99.90;;;;;;5074990;28;20044;-67
2022/01/15 07:58:21;;;;;;;5.60;3.03;;;6.70;99.90;;;;;;5076215;28;20071;-67
2022/01/15 08:00:47;;;;;;;4.53;2.45;;;6.60;99.90;;;;;;5076023;28;20047;-67
2022/01/15 08:03:12;;;;;;;4.65;2.70;;;6.60;99.90;;;;;;5076450;28;20427;-67
2022/01/15 08:05:38;;;;;;;6.40;2.10;;;6.60;99.90;;;;;;5075778;28;20052;-67
2022/01/15 08:08:04;;;;;;;3.35;2.03;;;6.60;99.90;;;;;;5076121;28;20038;-67
2022/01/15 08:10:30;;;;;;;4.22;1.90;;;6.60;99.90;;;;;;5076095;28;20086;-67
2022/01/15 08:12:55;;;;;;;4.63;1.88;;;6.60;99.90;;;;;;5076195;28;20043;-67
2022/01/15 08:15:21;;;;;;;2.75;1.75;;;6.60;99.90;;;;;;5075231;28;20048;-67
2022/01/15 08:17:48;;;;;;;4.25;2.40;;;6.50;99.90;;;;;;5074348;28;20049;-67
2022/01/15 08:20:14;;;;;;;5.75;2.05;;;6.50;99.90;;;;;;5076109;28;20048;-67
2022/01/15 08:22:41;;;;;;;4.72;2.78;;;6.50;99.90;;;;;;5076066;28;20392;-67
2022/01/15 08:25:07;;;;;;;4.70;1.88;;;6.50;99.90;;;;;;5075460;28;20043;-67
2022/01/15 08:27:33;;;;;;;3.85;2.55;;;6.50;99.90;;;;;;5074481;28;20044;-67
2022/01/15 08:29:58;;;;;;;5.93;1.95;;;6.50;99.90;;;;;;5076550;28;20158;-67
2022/01/15 08:32:24;;;;;;;3.25;2.28;;;6.50;99.90;;;;;;5074981;28;20069;-67
2022/01/15 08:34:50;;;;;;;5.38;2.33;;;6.50;99.90;;;;;;5086145;28;20047;-67
2022/01/15 08:37:16;;;;;;;2.97;2.22;;;6.60;99.90;;;;;;5085629;28;20036;-67
2022/01/15 08:39:41;;;;;;;5.38;2.42;;;6.50;99.90;;;;;;5084173;28;20089;-68
2022/01/15 08:42:09;;;;;;;4.65;3.28;;;6.50;99.90;;;;;;5079521;28;20051;-67
2022/01/15 08:44:36;;;;;;;4.43;2.42;;;6.50;99.90;;;;;;5074246;28;20072;-67
2022/01/15 08:47:04;;;;;;;3.78;2.63;;;6.50;99.90;;;;;;5075340;28;20047;-67
2022/01/15 08:49:29;;;;;;;5.15;2.15;;;6.50;99.90;;;;;;5082018;28;20047;-67
2022/01/15 08:51:56;;;;;;;3.15;2.03;;;6.50;99.90;;;;;;5075373;28;20037;-67
2022/01/15 08:54:21;;;;;;;3.88;2.20;;;6.50;99.90;;;;;;5075879;28;20037;-67
2022/01/15 08:56:47;;;;;;;5.03;2.92;;;6.50;99.90;;;;;;5074824;28;20038;-67
2022/01/15 08:59:12;;;;;;;4.05;2.40;;;6.50;99.90;;;;;;5075329;28;20044;-67
2022/01/15 09:01:38;;;;;;;3.38;2.28;;;6.50;99.90;;;;;;5075122;28;20033;-67
2022/01/15 09:04:04;;;;;;;4.15;2.33;;;6.50;99.90;;;;;;5073992;28;20500;-67
2022/01/15 09:06:30;;;;;;;7.30;2.40;;;6.50;99.90;;;;;;5074507;28;20119;-70
2022/01/15 09:08:55;;;;;;;5.85;2.85;;;6.60;99.90;;;;;;5074058;28;20411;-71
2022/01/15 09:11:22;;;;;;;3.50;2.10;;;6.60;99.90;;;;;;5074954;28;20064;-70
2022/01/15 09:13:48;;;;;;;4.47;2.03;;;6.60;99.90;;;;;;5075264;28;20123;-70
2022/01/15 09:16:14;;;;;;;5.10;3.13;;;6.50;99.90;;;;;;5074837;28;20074;-70
2022/01/15 09:18:40;;;;;;;5.28;2.95;;;6.50;99.90;;;;;;5075254;28;20072;-70
2022/01/15 09:21:06;;;;;;;4.90;2.70;;;6.50;99.90;;;;;;5074707;28;20078;-70
2022/01/15 09:23:32;;;;;;;5.10;2.72;;;6.50;99.90;;;;;;5073455;28;20052;-70
2022/01/15 09:25:58;;;;;;;4.72;2.55;;;6.40;99.90;;;;;;5073135;28;20401;-70
2022/01/15 09:31:10;;;;;;;4.03;2.47;;;6.40;99.90;;;;;;5073394;28;20052;-70
2022/01/15 09:33:35;;;;;;;6.45;3.15;;;6.50;99.90;;;;;;5074593;28;20056;-70
2022/01/15 09:36:02;;;;;;;5.90;3.13;;;6.50;99.90;;;;;;5074102;28;20045;-71
2022/01/15 09:38:28;;;;;;;5.47;3.53;;;6.50;99.90;;;;;;5074491;28;20115;-70
2022/01/15 09:40:55;;;;;;;8.00;4.13;;;6.50;99.90;;;;;;5073002;28;20124;-71
2022/01/15 09:43:21;;;;;;;8.90;4.57;;;6.50;99.90;;;;;;5072968;28;20040;-71
2022/01/15 09:45:47;;;;;;;9.82;4.68;;;6.50;99.90;;;;;;5074309;28;20036;-71
2022/01/15 09:48:15;;;;;;;9.82;5.72;;;6.50;99.90;;;;;;5074319;28;20170;-70
2022/01/15 09:50:43;;;;;;;11.77;6.65;;;6.50;99.90;;;;;;5074135;28;20041;-71
2022/01/15 09:53:16;;;;;;;12.48;7.03;;;6.50;99.90;;;;;;5073098;28;20081;-71
2022/01/15 09:55:43;;;;;;;14.45;7.25;;;6.50;99.90;;;;;;5073877;28;20043;-71
2022/01/15 09:58:09;;;;;;;14.57;8.55;;;6.50;99.90;;;;;;5072837;28;20040;-71
2022/01/15 10:00:35;;;;;;;15.40;7.70;;;6.50;99.90;;;;;;5072687;28;20409;-71
2022/01/15 10:03:01;;;;;;;16.52;8.20;;;6.60;99.90;;;;;;5072986;28;20048;-71
2022/01/15 10:05:27;;;;;;;17.75;9.30;;;6.60;99.90;;;;;;5072957;28;20072;-71
2022/01/15 10:07:55;;;;;;;16.23;9.50;;;6.60;99.90;;;;;;5073631;28;20036;-70
2022/01/15 10:10:22;;;;;;;17.83;9.60;;;6.60;99.90;;;;;;5072647;28;20041;-71
2022/01/15 10:12:48;;;;;;;17.77;8.98;;;6.60;99.90;;;;;;5073041;28;20084;-71
2022/01/15 10:15:15;;;;;;;16.15;8.90;;;6.70;99.90;;;;;;5073309;28;20436;-71
2022/01/15 10:17:41;;;;;;;15.68;9.13;;;6.70;99.90;;;;;;5053878;28;20048;-71
2022/01/15 10:20:13;;;;;;;16.45;8.95;;;6.70;99.90;;;;;;5053647;28;20044;-71
2022/01/15 10:22:46;;;;;;;15.80;9.02;;;6.70;99.90;;;;;;5052886;28;20053;-71
2022/01/15 10:25:21;;;;;;;;;;;6.60;99.90;;;;;;5052762;28;20037;-71
2022/01/15 10:27:53;;;;;;;11.82;7.40;;;6.60;99.90;;;;;;5053217;28;20003;-70
2022/01/15 10:30:26;;;;;;;14.90;7.72;;;6.60;99.90;;;;;;5053864;28;20068;-70
2022/01/15 10:32:57;;;;;;;14.82;8.27;;;6.60;99.90;;;;;;5052535;28;20090;-71
2022/01/15 10:35:26;;;;;;;14.50;7.70;;;6.60;99.90;;;;;;5053779;28;20052;-71
2022/01/15 10:37:57;;;;;;;14.30;8.45;;;6.70;99.90;;;;;;5053373;28;20040;-71
2022/01/15 10:40:27;;;;;;;15.77;8.98;;;6.60;99.90;;;;;;5053803;28;20135;-70
2022/01/15 10:42:56;;;;;;;15.93;8.65;;;6.70;99.90;;;;;;5053894;28;20133;-71
2022/01/15 10:45:23;;;;;;;17.40;8.80;;;6.60;99.90;;;;;;5054053;28;20036;-71
2022/01/15 10:47:52;;;;;;;17.95;9.63;;;6.70;99.90;;;;;;5052637;28;20037;-71
2022/01/15 10:50:38;;;;;;;16.20;8.45;;;6.60;99.90;;;;;;5053616;28;20029;-70
2022/01/15 10:53:07;;;;;;;16.38;9.13;;;6.70;99.90;;;;;;5053471;28;20045;-71
2022/01/15 10:55:34;;;;;;;14.63;7.85;;;6.70;99.90;;;;;;5053398;28;20040;-71
2022/01/15 10:58:02;;;;;;;15.80;9.02;;;6.70;99.90;;;;;;5053712;28;20052;-70
2022/01/15 11:00:36;;;;;;;15.15;7.63;;;6.60;99.90;;;;;;5053502;28;20037;-71
2022/01/15 11:03:07;;;;;;;12.45;7.43;;;6.60;99.90;;;;;;5052093;28;20132;-71
2022/01/15 11:05:34;;;;;;;13.80;7.63;;;6.60;99.90;;;;;;5053357;28;20385;-71
2022/01/15 11:08:17;;;;;;;11.30;6.93;;;6.60;99.90;;;;;;5053229;28;20055;-71
2022/01/15 11:10:44;;;;;;;15.38;7.78;;;6.70;99.90;;;;;;5052099;28;20436;-71
2022/01/15 11:13:11;;;;;;;13.30;7.53;;;6.60;99.90;;;;;;5052918;28;20040;-70
2022/01/15 11:15:39;;;;;;;16.05;8.60;;;6.60;99.90;;;;;;5051744;28;20048;-70
2022/01/15 11:18:05;;;;;;;12.27;8.15;;;6.70;99.90;;;;;;5051615;28;20041;-71
2022/01/15 11:20:33;;;;;;;13.55;8.32;;;6.70;99.90;;;;;;5053016;28;20037;-71
2022/01/15 11:23:02;;;;;;;14.85;8.77;;;6.70;99.90;;;;;;5052876;28;20056;-70
2022/01/15 11:25:29;;;;;;;15.27;9.20;;;6.70;99.90;;;;;;5052003;28;20036;-70
2022/01/15 11:27:57;;;;;;;16.33;10.25;;;6.60;99.90;;;;;;5052684;28;20037;-71
2022/01/15 11:30:23;;;;;;;14.30;9.07;;;6.60;99.90;;;;;;5053034;28;20033;-70
2022/01/15 11:32:49;;;;;;;13.00;8.73;;;6.60;99.90;;;;;;5051611;28;20040;-71
2022/01/15 11:35:15;;;;;;;11.85;8.70;;;6.60;99.90;;;;;;5053312;28;20041;-71
2022/01/15 11:37:54;;;;;;;13.13;9.25;;;6.60;99.90;;;;;;5051114;28;20041;-70
2022/01/15 11:40:46;;;;;;;15.02;9.68;;;6.60;99.90;;;;;;5052508;28;20033;-71
2022/01/15 11:43:24;;;;;;;13.82;9.93;;;6.50;99.90;;;;;;5052825;28;20072;-70
2022/01/15 11:46:03;;;;;;;13.93;9.57;;;6.50;99.90;;;;;;5052659;28;20398;-71
2022/01/15 11:48:33;;;;;;;15.18;11.00;;;6.50;99.90;;;;;;5052812;28;20044;-71
2022/01/15 11:51:14;;;;;;;15.50;10.20;;;6.50;99.90;;;;;;5052792;28;20040;-71
2022/01/15 11:54:00;;;;;;;16.30;10.50;;;6.50;99.90;;;;;;5051378;28;20106;-67
2022/01/15 11:56:38;;;;;;;15.27;10.52;;;6.70;99.90;;;;;;5078340;28;20036;-67
2022/01/15 11:59:25;;;;;;;17.45;10.80;;;6.70;99.90;;;;;;5079373;28;20504;-68
2022/01/15 12:01:56;;;;;;;14.63;9.57;;;6.80;99.90;;;;;;5087977;28;20569;-68
2022/01/15 12:04:30;;;;;;;15.15;10.35;;;6.90;99.90;;;;;;5095820;28;20051;-68
2022/01/15 12:07:05;;;;;;;15.48;10.18;;;7.00;99.90;;;;;;5095129;28;20559;-67
2022/01/15 12:09:32;;;;;;;15.23;10.73;;;7.10;99.90;;;;;;5093844;28;20044;-68
2022/01/15 12:11:58;;;;;;;15.85;10.20;;;7.10;99.90;;;;;;5092128;28;20040;-68
2022/01/15 12:14:53;;;;;;;15.02;10.07;;;7.10;99.90;;;;;;5096853;28;20451;-68
2022/01/15 12:17:31;;;;;;;15.35;10.77;;;7.20;99.90;;;;;;5096069;28;20047;-68
2022/01/15 12:20:05;;;;;;;15.23;10.07;;;7.30;99.90;;;;;;5096281;28;20036;-68
2022/01/15 12:22:39;;;;;;;19.25;11.45;;;7.30;99.90;;;;;;5094908;28;20040;-68
2022/01/15 12:25:11;;;;;;;17.13;10.88;;;7.30;99.90;;;;;;5095156;28;20383;-68
2022/01/15 12:27:37;;;;;;;17.20;11.70;;;7.30;99.90;;;;;;5095637;28;20051;-68
2022/01/15 12:30:23;;;;;;;14.05;10.43;;;7.30;99.90;;;;;;5096310;28;20040;-68
2022/01/15 12:32:54;;;;;;;17.90;11.13;;;7.30;99.90;;;;;;5095945;28;20036;-68
2022/01/15 12:35:26;;;;;;;21.60;12.90;;;7.20;99.90;;;;;;5096197;28;20202;-67
2022/01/15 12:37:56;;;;;;;21.52;13.05;;;7.20;99.90;;;;;;5094327;28;20044;-68
2022/01/15 12:40:32;;;;;;;18.40;13.13;;;7.20;99.90;;;;;;5094398;28;20070;-68
2022/01/15 12:43:00;;;;;;;18.15;12.32;;;7.20;99.90;;;;;;5094639;28;20054;-68
2022/01/15 12:45:26;;;;;;;20.35;12.98;;;7.10;99.90;;;;;;5096229;28;20032;-68
2022/01/15 12:47:52;;;;;;;23.42;14.43;;;7.10;99.90;;;;;;5095398;28;20032;-68
2022/01/15 12:50:19;;;;;;;22.42;13.80;;;7.00;99.90;;;;;;5094871;28;20373;-68
2022/01/15 12:52:44;;;;;;;18.77;13.60;;;7.10;99.90;;;;;;5095726;28;20118;-68
2022/01/15 12:55:11;;;;;;;18.75;12.23;;;7.10;99.90;;;;;;5095706;28;20075;-68
2022/01/15 12:57:47;;;;;;;19.50;12.82;;;7.10;99.90;;;;;;5095303;28;20028;-68
2022/01/15 13:00:13;;;;;;;23.42;13.82;;;7.20;99.90;;;;;;5095523;28;20110;-67
2022/01/15 13:02:39;;;;;;;21.88;12.80;;;7.20;99.90;;;;;;5095453;28;20036;-67
2022/01/15 13:05:05;;;;;;;23.40;13.90;;;7.20;99.90;;;;;;5077832;28;20036;-67
2022/01/15 13:07:53;;;;;;;19.08;12.30;;;7.20;99.90;;;;;;5095129;28;20388;-67
2022/01/15 13:10:53;;;;;;;22.23;13.43;;;7.20;99.90;;;;;;5093835;28;20470;-67
2022/01/15 13:13:22;;;;;;;20.75;13.60;;;7.10;99.90;;;;;;5095035;28;20032;-67
2022/01/15 13:15:57;;;;;;;22.48;13.13;;;7.00;99.90;;;;;;5094816;28;20031;-67